createdAt,value
2018-12-21T00:01:27.000Z,28
2018-12-21T00:02:27.000Z,28
2018-12-21T00:04:27.000Z,27.9
2018-12-21T00:06:27.000Z,27.7
2018-12-21T00:07:27.000Z,27.7
2018-12-21T00:09:27.000Z,27.7
2018-12-21T00:10:26.000Z,27.7
2018-12-21T00:12:26.000Z,27.8
2018-12-21T00:13:26.000Z,27.8
2018-12-21T00:15:26.000Z,27.9
2018-12-21T00:17:26.000Z,27.8
2018-12-21T00:19:26.000Z,27.6
2018-12-21T00:20:26.000Z,27.5
2018-12-21T00:21:26.000Z,27.6
2018-12-21T00:23:26.000Z,27.7
2018-12-21T00:24:26.000Z,27.7
2018-12-21T00:26:26.000Z,27.7
2018-12-21T00:28:11.000Z,27.7
2018-12-21T00:29:26.000Z,27.7
2018-12-21T00:31:26.000Z,27.7
2018-12-21T00:33:26.000Z,27.7
2018-12-21T00:34:26.000Z,27.7
2018-12-21T00:36:26.000Z,27.7
2018-12-21T00:38:11.000Z,27.7
2018-12-21T00:39:26.000Z,27.6
2018-12-21T00:41:26.000Z,27.7
2018-12-21T00:43:26.000Z,27.7
2018-12-21T00:45:11.000Z,27.7
2018-12-21T00:46:26.000Z,27.7
2018-12-21T00:48:26.000Z,27.6
2018-12-21T00:49:26.000Z,27.6
2018-12-21T00:50:26.000Z,27.7
2018-12-21T00:52:26.000Z,27.8
2018-12-21T00:53:26.000Z,27.8
2018-12-21T00:54:26.000Z,27.9
2018-12-21T00:56:26.000Z,28
2018-12-21T00:57:26.000Z,27.9
2018-12-21T00:59:26.000Z,27.9
2018-12-21T01:01:26.000Z,27.9
2018-12-21T01:02:26.000Z,27.9
2018-12-21T01:04:26.000Z,27.8
2018-12-21T01:05:26.000Z,27.8
2018-12-21T01:06:26.000Z,27.9
2018-12-21T01:08:11.000Z,27.9
2018-12-21T01:09:26.000Z,27.9
2018-12-21T01:10:26.000Z,27.9
2018-12-21T01:12:26.000Z,28
2018-12-21T01:14:27.000Z,27.9
2018-12-21T01:16:27.000Z,27.9
2018-12-21T01:18:27.000Z,27.8
2018-12-21T01:19:27.000Z,27.8
2018-12-21T01:20:27.000Z,27.8
2018-12-21T01:21:27.000Z,27.8
2018-12-21T01:23:27.000Z,27.9
2018-12-21T01:25:12.000Z,27.9
2018-12-21T01:26:27.000Z,27.8
2018-12-21T01:28:27.000Z,27.7
2018-12-21T01:29:27.000Z,27.7
2018-12-21T01:31:27.000Z,27.7
2018-12-21T01:32:27.000Z,27.8
2018-12-21T01:33:27.000Z,27.8
2018-12-21T01:35:12.000Z,27.8
2018-12-21T01:36:27.000Z,27.8
2018-12-21T01:38:27.000Z,27.7
2018-12-21T01:40:27.000Z,27.8
2018-12-21T01:41:27.000Z,27.8
2018-12-21T01:43:27.000Z,27.8
2018-12-21T01:45:27.000Z,27.7
2018-12-21T01:46:27.000Z,27.7
2018-12-21T01:48:12.000Z,27.8
2018-12-21T01:49:27.000Z,27.7
2018-12-21T01:51:27.000Z,27.7
2018-12-21T01:53:12.000Z,27.6
2018-12-21T01:54:27.000Z,27.5
2018-12-21T01:56:27.000Z,27.5
2018-12-21T01:58:12.000Z,27.6
2018-12-21T01:59:27.000Z,27.6
2018-12-21T02:01:27.000Z,27.6
2018-12-21T02:03:27.000Z,27.6
2018-12-21T02:05:27.000Z,27.6
2018-12-21T02:07:27.000Z,27.5
2018-12-21T02:09:27.000Z,27.5
2018-12-21T02:10:27.000Z,27.5
2018-12-21T02:12:27.000Z,27.6
2018-12-21T02:13:27.000Z,27.6
2018-12-21T02:15:12.000Z,27.6
2018-12-21T02:16:27.000Z,27.6
2018-12-21T02:18:27.000Z,27.6
2018-12-21T02:19:27.000Z,27.7
2018-12-21T02:20:27.000Z,27.7
2018-12-21T02:22:27.000Z,27.7
2018-12-21T02:23:27.000Z,27.7
2018-12-21T02:25:27.000Z,27.7
2018-12-21T02:26:27.000Z,27.7
2018-12-21T02:27:27.000Z,27.8
2018-12-21T02:29:27.000Z,27.9
2018-12-21T02:31:27.000Z,27.8
2018-12-21T02:33:27.000Z,27.7
2018-12-21T02:34:27.000Z,27.7
2018-12-21T02:36:11.000Z,27.6
2018-12-21T02:37:27.000Z,27.6
2018-12-21T02:39:27.000Z,27.5
2018-12-21T02:40:27.000Z,27.5
2018-12-21T02:41:27.000Z,27.6
2018-12-21T02:43:27.000Z,27.6
2018-12-21T02:45:27.000Z,27.6
2018-12-21T02:46:27.000Z,27.6
2018-12-21T02:47:27.000Z,27.6
2018-12-21T02:49:27.000Z,27.7
2018-12-21T02:51:27.000Z,27.7
2018-12-21T02:52:27.000Z,27.7
2018-12-21T02:54:27.000Z,27.7
2018-12-21T02:56:27.000Z,27.6
2018-12-21T02:57:27.000Z,27.6
2018-12-21T02:58:27.000Z,27.6
2018-12-21T03:00:27.000Z,27.7
2018-12-21T03:02:27.000Z,27.7
2018-12-21T03:03:27.000Z,27.7
2018-12-21T03:05:27.000Z,27.8
2018-12-21T03:06:27.000Z,27.8
2018-12-21T03:08:27.000Z,27.7
2018-12-21T03:09:27.000Z,27.7
2018-12-21T03:11:27.000Z,27.7
2018-12-21T03:12:27.000Z,27.8
2018-12-21T03:13:27.000Z,27.8
2018-12-21T03:14:27.000Z,27.8
2018-12-21T03:16:27.000Z,27.9
2018-12-21T03:18:27.000Z,27.8
2018-12-21T03:19:27.000Z,27.8
2018-12-21T03:21:11.000Z,27.8
2018-12-21T03:22:11.000Z,27.8
2018-12-21T03:24:26.000Z,27.5
2018-12-21T03:25:26.000Z,27.5
2018-12-21T03:26:26.000Z,27.5
2018-12-21T03:28:26.000Z,27.6
2018-12-21T03:29:26.000Z,27.6
2018-12-21T03:30:26.000Z,27.7
2018-12-21T03:32:26.000Z,27.7
2018-12-21T03:34:26.000Z,27.6
2018-12-21T03:35:26.000Z,27.6
2018-12-21T03:36:26.000Z,27.7
2018-12-21T03:38:26.000Z,27.7
2018-12-21T03:39:26.000Z,27.7
2018-12-21T03:41:26.000Z,27.7
2018-12-21T03:43:26.000Z,27.6
2018-12-21T03:45:26.000Z,27.6
2018-12-21T03:47:26.000Z,27.6
2018-12-21T03:48:26.000Z,27.6
2018-12-21T03:50:26.000Z,27.6
2018-12-21T03:52:26.000Z,27.6
2018-12-21T03:53:26.000Z,27.6
2018-12-21T03:55:26.000Z,27.6
2018-12-21T03:57:26.000Z,27.6
2018-12-21T03:58:26.000Z,27.6
2018-12-21T04:00:26.000Z,27.6
2018-12-21T04:02:11.000Z,27.6
2018-12-21T04:03:26.000Z,27.6
2018-12-21T04:05:26.000Z,27.6
2018-12-21T04:07:26.000Z,27.5
2018-12-21T04:09:26.000Z,27.5
2018-12-21T04:11:26.000Z,27.4
2018-12-21T04:13:26.000Z,27.4
2018-12-21T04:15:26.000Z,27.4
2018-12-21T04:16:26.000Z,27.4
2018-12-21T04:18:26.000Z,27.5
2018-12-21T04:19:26.000Z,27.5
2018-12-21T04:21:26.000Z,27.5
2018-12-21T04:22:26.000Z,27.5
2018-12-21T04:24:26.000Z,27.5
2018-12-21T04:26:26.000Z,27.5
2018-12-21T04:27:26.000Z,27.5
2018-12-21T04:28:26.000Z,27.6
2018-12-21T04:30:26.000Z,27.6
2018-12-21T04:31:26.000Z,27.7
2018-12-21T04:33:26.000Z,27.7
2018-12-21T04:35:26.000Z,27.7
2018-12-21T04:36:26.000Z,27.7
2018-12-21T04:37:26.000Z,27.7
2018-12-21T04:39:26.000Z,27.7
2018-12-21T04:41:26.000Z,27.6
2018-12-21T04:43:26.000Z,27.6
2018-12-21T04:44:26.000Z,27.6
2018-12-21T04:45:26.000Z,27.6
2018-12-21T04:47:26.000Z,27.6
2018-12-21T04:49:26.000Z,27.5
2018-12-21T04:50:26.000Z,27.5
2018-12-21T04:52:26.000Z,27.5
2018-12-21T04:54:26.000Z,27.5
2018-12-21T04:56:26.000Z,27.4
2018-12-21T04:57:26.000Z,27.4
2018-12-21T04:58:26.000Z,27.5
2018-12-21T05:00:26.000Z,27.6
2018-12-21T05:02:26.000Z,27.5
2018-12-21T05:04:12.000Z,27.5
2018-12-21T05:05:26.000Z,27.3
2018-12-21T05:06:26.000Z,27.3
2018-12-21T05:08:26.000Z,27.3
2018-12-21T05:09:26.000Z,27.3
2018-12-21T05:11:26.000Z,27.4
2018-12-21T05:13:26.000Z,27.4
2018-12-21T05:14:26.000Z,27.4
2018-12-21T05:16:26.000Z,27.5
2018-12-21T05:18:11.000Z,27.5
2018-12-21T05:19:26.000Z,27.5
2018-12-21T05:20:26.000Z,27.5
2018-12-21T05:21:26.000Z,27.5
2018-12-21T05:22:26.000Z,27.5
2018-12-21T05:24:27.000Z,27.5
2018-12-21T05:26:26.000Z,27.4
2018-12-21T05:27:26.000Z,27.4
2018-12-21T05:28:26.000Z,27.4
2018-12-21T05:30:26.000Z,27.5
2018-12-21T05:32:26.000Z,27.5
2018-12-21T05:34:26.000Z,27.5
2018-12-21T05:35:26.000Z,27.5
2018-12-21T05:37:26.000Z,27.5
2018-12-21T05:38:26.000Z,27.5
2018-12-21T05:39:26.000Z,27.5
2018-12-21T05:40:26.000Z,27.6
2018-12-21T05:42:26.000Z,27.6
2018-12-21T05:43:26.000Z,27.6
2018-12-21T05:45:26.000Z,27.6
2018-12-21T05:46:26.000Z,27.6
2018-12-21T05:48:26.000Z,27.6
2018-12-21T05:49:26.000Z,27.6
2018-12-21T05:50:26.000Z,27.6
2018-12-21T05:52:26.000Z,27.6
2018-12-21T05:54:26.000Z,27.5
2018-12-21T05:55:26.000Z,27.5
2018-12-21T05:57:26.000Z,27.5
2018-12-21T05:59:26.000Z,27.5
2018-12-21T06:00:26.000Z,27.4
2018-12-21T06:01:26.000Z,27.4
2018-12-21T06:03:26.000Z,27.5
2018-12-21T06:04:26.000Z,27.5
2018-12-21T06:06:26.000Z,27.5
2018-12-21T06:08:26.000Z,27.5
2018-12-21T06:10:26.000Z,27.5
2018-12-21T06:11:26.000Z,27.5
2018-12-21T06:13:26.000Z,27.7
2018-12-21T06:14:26.000Z,27.7
2018-12-21T06:15:26.000Z,27.8
2018-12-21T06:17:26.000Z,27.9
2018-12-21T06:18:26.000Z,27.9
2018-12-21T06:20:26.000Z,27.9
2018-12-21T06:22:26.000Z,27.9
2018-12-21T06:23:26.000Z,27.9
2018-12-21T06:25:26.000Z,27.9
2018-12-21T06:27:26.000Z,27.9
2018-12-21T06:29:11.000Z,27.9
2018-12-21T06:30:26.000Z,27.9
2018-12-21T06:32:27.000Z,27.9
2018-12-21T06:34:12.000Z,27.9
2018-12-21T06:35:27.000Z,27.9
2018-12-21T06:37:27.000Z,27.9
2018-12-21T06:39:27.000Z,27.9
2018-12-21T06:40:27.000Z,27.9
2018-12-21T06:42:27.000Z,27.9
2018-12-21T06:44:27.000Z,27.8
2018-12-21T06:46:12.000Z,27.8
2018-12-21T06:47:27.000Z,27.6
2018-12-21T06:49:27.000Z,27.5
2018-12-21T06:50:27.000Z,27.5
2018-12-21T06:51:27.000Z,27.5
2018-12-21T06:53:12.000Z,27.6
2018-12-21T06:54:27.000Z,27.5
2018-12-21T06:55:27.000Z,27.5
2018-12-21T06:57:27.000Z,27.6
2018-12-21T06:59:27.000Z,27.6
2018-12-21T07:00:27.000Z,27.6
2018-12-21T07:02:27.000Z,27.7
2018-12-21T07:04:27.000Z,27.7
2018-12-21T07:06:27.000Z,27.6
2018-12-21T07:08:27.000Z,27.6
2018-12-21T07:10:27.000Z,27.7
2018-12-21T07:12:27.000Z,27.8
2018-12-21T07:14:27.000Z,27.8
2018-12-21T07:16:27.000Z,27.7
2018-12-21T07:17:27.000Z,27.8
2018-12-21T07:18:27.000Z,27.8
2018-12-21T07:20:27.000Z,28
2018-12-21T07:21:27.000Z,28
2018-12-21T07:22:27.000Z,28.1
2018-12-21T07:23:27.000Z,28.2
2018-12-21T07:25:27.000Z,28.3
2018-12-21T07:27:27.000Z,28.3
2018-12-21T07:28:27.000Z,28.3
2018-12-21T07:29:27.000Z,28.3
2018-12-21T07:31:27.000Z,28.4
2018-12-21T07:33:27.000Z,28.4
2018-12-21T07:35:27.000Z,28.4
2018-12-21T07:37:26.000Z,28.4
2018-12-21T07:39:26.000Z,28.4
2018-12-21T07:40:26.000Z,28.4
2018-12-21T07:42:26.000Z,28.4
2018-12-21T07:43:26.000Z,28.5
2018-12-21T07:44:26.000Z,28.5
2018-12-21T07:46:11.000Z,28.5
2018-12-21T07:47:26.000Z,28.5
2018-12-21T07:48:26.000Z,28.5
2018-12-21T07:50:26.000Z,28.4
2018-12-21T07:51:26.000Z,28.4
2018-12-21T07:53:26.000Z,28.4
2018-12-21T07:55:26.000Z,28.2
2018-12-21T07:57:26.000Z,28
2018-12-21T07:59:26.000Z,27.9
2018-12-21T08:00:26.000Z,28
2018-12-21T08:01:26.000Z,28
2018-12-21T08:03:26.000Z,28.1
2018-12-21T08:05:26.000Z,28.2
2018-12-21T08:07:26.000Z,28.2
2018-12-21T08:09:26.000Z,28.3
2018-12-21T08:11:26.000Z,28.3
2018-12-21T08:13:26.000Z,28.3
2018-12-21T08:14:26.000Z,28.3
2018-12-21T08:16:26.000Z,28.4
2018-12-21T08:18:26.000Z,28.4
2018-12-21T08:20:26.000Z,28.4
2018-12-21T08:22:26.000Z,28.4
2018-12-21T08:23:26.000Z,28.5
2018-12-21T08:25:26.000Z,28.5
2018-12-21T08:27:26.000Z,28.5
2018-12-21T08:29:26.000Z,28.5
2018-12-21T08:30:26.000Z,28.6
2018-12-21T08:32:26.000Z,28.7
2018-12-21T08:33:26.000Z,28.7
2018-12-21T08:35:26.000Z,28.8
2018-12-21T08:36:26.000Z,28.9
2018-12-21T08:38:26.000Z,28.9
2018-12-21T08:39:26.000Z,28.9
2018-12-21T08:41:26.000Z,28.9
2018-12-21T08:43:26.000Z,28.8
2018-12-21T08:45:26.000Z,28.8
2018-12-21T08:47:26.000Z,28.8
2018-12-21T08:49:26.000Z,28.8
2018-12-21T08:50:26.000Z,28.8
2018-12-21T08:51:26.000Z,28.8
2018-12-21T08:52:26.000Z,28.9
2018-12-21T08:54:26.000Z,29
2018-12-21T08:56:26.000Z,29
2018-12-21T08:57:26.000Z,29
2018-12-21T08:59:26.000Z,29.1
2018-12-21T09:01:11.000Z,29.1
2018-12-21T09:02:26.000Z,29.1
2018-12-21T09:04:26.000Z,29
2018-12-21T09:06:11.000Z,28.9
2018-12-21T09:07:26.000Z,28.7
2018-12-21T09:08:26.000Z,28.7
2018-12-21T09:09:26.000Z,28.8
2018-12-21T09:11:26.000Z,28.9
2018-12-21T09:13:26.000Z,29
2018-12-21T09:14:26.000Z,29.1
2018-12-21T09:16:26.000Z,29.2
2018-12-21T09:18:26.000Z,29.1
2018-12-21T09:20:26.000Z,29.1
2018-12-21T09:22:26.000Z,29.2
2018-12-21T09:23:26.000Z,29.2
2018-12-21T09:24:26.000Z,29.3
2018-12-21T09:26:11.000Z,29.4
2018-12-21T09:27:26.000Z,29.4
2018-12-21T09:29:11.000Z,29.4
2018-12-21T09:30:26.000Z,29.3
2018-12-21T09:31:26.000Z,29.3
2018-12-21T09:33:26.000Z,29.4
2018-12-21T09:34:26.000Z,29.4
2018-12-21T09:35:26.000Z,29.5
2018-12-21T09:36:26.000Z,29.5
2018-12-21T09:38:11.000Z,29.4
2018-12-21T09:39:26.000Z,29.3
2018-12-21T09:40:26.000Z,29.3
2018-12-21T09:42:11.000Z,29.3
2018-12-21T09:43:26.000Z,29.3
2018-12-21T09:45:27.000Z,29.2
2018-12-21T09:46:27.000Z,29.2
2018-12-21T09:47:27.000Z,29.3
2018-12-21T09:49:27.000Z,29.3
2018-12-21T09:50:27.000Z,29.2
2018-12-21T09:52:27.000Z,29.2
2018-12-21T09:54:27.000Z,29.1
2018-12-21T09:56:27.000Z,29
2018-12-21T09:57:27.000Z,29
2018-12-21T09:59:12.000Z,29
2018-12-21T10:00:27.000Z,29
2018-12-21T10:02:27.000Z,29.1
2018-12-21T10:04:27.000Z,29
2018-12-21T10:06:27.000Z,28.9
2018-12-21T10:07:27.000Z,28.9
2018-12-21T10:09:27.000Z,28.9
2018-12-21T10:11:27.000Z,28.9
2018-12-21T10:13:27.000Z,28.9
2018-12-21T10:15:27.000Z,29
2018-12-21T10:17:27.000Z,29
2018-12-21T10:19:27.000Z,29
2018-12-21T10:20:27.000Z,29.1
2018-12-21T10:21:27.000Z,29.1
2018-12-21T10:23:27.000Z,29.2
2018-12-21T10:25:27.000Z,29.1
2018-12-21T10:27:27.000Z,29
2018-12-21T10:28:27.000Z,29
2018-12-21T10:30:12.000Z,29
2018-12-21T10:31:27.000Z,29
2018-12-21T10:32:27.000Z,29
2018-12-21T10:33:27.000Z,29
2018-12-21T10:35:27.000Z,29.1
2018-12-21T10:37:27.000Z,29
2018-12-21T10:38:27.000Z,29
2018-12-21T10:40:27.000Z,29.1
2018-12-21T10:41:27.000Z,29.1
2018-12-21T10:43:27.000Z,29.2
2018-12-21T10:44:27.000Z,29.2
2018-12-21T10:45:27.000Z,29.3
2018-12-21T10:47:12.000Z,29.4
2018-12-21T10:48:26.000Z,29.4
2018-12-21T10:49:26.000Z,29.4
2018-12-21T10:51:11.000Z,29.4
2018-12-21T10:52:26.000Z,29.4
2018-12-21T10:54:26.000Z,29.3
2018-12-21T10:56:26.000Z,29.3
2018-12-21T10:57:26.000Z,29.3
2018-12-21T10:59:11.000Z,29.3
2018-12-21T11:00:26.000Z,29.2
2018-12-21T11:01:26.000Z,29.1
2018-12-21T11:03:26.000Z,29.2
2018-12-21T11:04:26.000Z,29.2
2018-12-21T11:05:26.000Z,29.3
2018-12-21T11:07:11.000Z,29.5
2018-12-21T11:08:26.000Z,29.5
2018-12-21T11:10:26.000Z,29.5
2018-12-21T11:11:26.000Z,29.5
2018-12-21T11:13:26.000Z,29.5
2018-12-21T11:14:26.000Z,29.5
2018-12-21T11:15:26.000Z,29.6
2018-12-21T11:16:26.000Z,29.7
2018-12-21T11:18:26.000Z,29.8
2018-12-21T11:19:26.000Z,29.8
2018-12-21T11:21:26.000Z,29.9
2018-12-21T11:22:26.000Z,29.9
2018-12-21T11:23:26.000Z,29.9
2018-12-21T11:25:26.000Z,29.9
2018-12-21T11:26:26.000Z,29.8
2018-12-21T11:28:26.000Z,29.9
2018-12-21T11:29:26.000Z,29.9
2018-12-21T11:31:11.000Z,29.9
2018-12-21T11:32:26.000Z,29.9
2018-12-21T11:33:26.000Z,29.9
2018-12-21T11:34:26.000Z,29.9
2018-12-21T11:35:26.000Z,30
2018-12-21T11:37:26.000Z,30.1
2018-12-21T11:39:26.000Z,30.1
2018-12-21T11:41:26.000Z,30
2018-12-21T11:43:26.000Z,30
2018-12-21T11:45:26.000Z,30
2018-12-21T11:47:26.000Z,29.9
2018-12-21T11:48:26.000Z,30
2018-12-21T11:50:26.000Z,30
2018-12-21T11:51:26.000Z,30
2018-12-21T11:53:27.000Z,30
2018-12-21T11:54:27.000Z,30
2018-12-21T11:56:27.000Z,30
2018-12-21T11:58:27.000Z,30
2018-12-21T12:00:27.000Z,29.9
2018-12-21T12:02:12.000Z,29.9
2018-12-21T12:03:12.000Z,29.8
2018-12-21T12:04:27.000Z,29.6
2018-12-21T12:05:27.000Z,29.6
2018-12-21T12:06:27.000Z,29.7
2018-12-21T12:08:27.000Z,29.8
2018-12-21T12:09:27.000Z,29.8
2018-12-21T12:10:27.000Z,29.9
2018-12-21T12:11:27.000Z,30
2018-12-21T12:13:27.000Z,30
2018-12-21T12:15:12.000Z,30
2018-12-21T12:16:27.000Z,29.8
2018-12-21T12:17:27.000Z,29.8
2018-12-21T12:19:27.000Z,29.7
2018-12-21T12:20:27.000Z,29.6
2018-12-21T12:22:27.000Z,29.7
2018-12-21T12:24:27.000Z,29.6
2018-12-21T12:25:27.000Z,29.5
2018-12-21T12:27:27.000Z,29.5
2018-12-21T12:29:12.000Z,29.5
2018-12-21T12:30:27.000Z,29.4
2018-12-21T12:32:27.000Z,29.4
2018-12-21T12:33:27.000Z,29.4
2018-12-21T12:34:27.000Z,29.4
2018-12-21T12:35:27.000Z,29.5
2018-12-21T12:37:27.000Z,29.6
2018-12-21T12:39:27.000Z,29.6
2018-12-21T12:40:27.000Z,29.6
2018-12-21T12:41:27.000Z,29.6
2018-12-21T12:43:12.000Z,29.7
2018-12-21T12:44:27.000Z,29.6
2018-12-21T12:46:27.000Z,29.6
2018-12-21T12:48:12.000Z,29.4
2018-12-21T12:49:27.000Z,29.1
2018-12-21T12:51:27.000Z,28.7
2018-12-21T12:53:27.000Z,28.4
2018-12-21T12:55:12.000Z,28.2
2018-12-21T12:56:26.000Z,28
2018-12-21T12:57:26.000Z,27.9
2018-12-21T12:58:26.000Z,27.9
2018-12-21T13:00:26.000Z,27.9
2018-12-21T13:01:26.000Z,27.8
2018-12-21T13:03:26.000Z,27.8
2018-12-21T13:04:26.000Z,27.8
2018-12-21T13:05:26.000Z,27.8
2018-12-21T13:06:26.000Z,27.7
2018-12-21T13:08:26.000Z,27.7
2018-12-21T13:09:26.000Z,27.6
2018-12-21T13:11:26.000Z,27.6
2018-12-21T13:12:26.000Z,27.5
2018-12-21T13:13:26.000Z,27.5
2018-12-21T13:15:26.000Z,27.5
2018-12-21T13:17:26.000Z,27.4
2018-12-21T13:19:26.000Z,27.3
2018-12-21T13:21:26.000Z,27.1
2018-12-21T13:23:26.000Z,27
2018-12-21T13:25:26.000Z,26.9
2018-12-21T13:27:26.000Z,26.8
2018-12-21T13:29:26.000Z,26.7
2018-12-21T13:30:26.000Z,26.7
2018-12-21T13:32:26.000Z,26.7
2018-12-21T13:34:26.000Z,26.6
2018-12-21T13:35:26.000Z,26.7
2018-12-21T13:36:26.000Z,26.7
2018-12-21T13:37:26.000Z,26.8
2018-12-21T13:39:26.000Z,26.9
2018-12-21T13:41:26.000Z,26.9
2018-12-21T13:42:26.000Z,26.8
2018-12-21T13:43:26.000Z,26.7
2018-12-21T13:44:26.000Z,26.7
2018-12-21T13:45:26.000Z,26.8
2018-12-21T13:47:26.000Z,26.7
2018-12-21T13:48:26.000Z,26.7
2018-12-21T13:49:26.000Z,26.7
2018-12-21T13:51:26.000Z,26.6
2018-12-21T13:52:26.000Z,26.5
2018-12-21T13:54:26.000Z,26.5
2018-12-21T13:56:11.000Z,26.4
2018-12-21T13:57:26.000Z,26.3
2018-12-21T13:58:26.000Z,26.3
2018-12-21T14:00:27.000Z,26.2
2018-12-21T14:01:27.000Z,26.1
2018-12-21T14:03:27.000Z,26.2
2018-12-21T14:04:27.000Z,26.2
2018-12-21T14:05:27.000Z,26.3
2018-12-21T14:07:27.000Z,26.3
2018-12-21T14:09:27.000Z,26.3
2018-12-21T14:10:27.000Z,26.4
2018-12-21T14:11:27.000Z,26.5
2018-12-21T14:13:27.000Z,26.6
2018-12-21T14:15:27.000Z,26.7
2018-12-21T14:17:27.000Z,26.8
2018-12-21T14:18:27.000Z,26.8
2018-12-21T14:20:27.000Z,26.9
2018-12-21T14:21:27.000Z,27
2018-12-21T14:22:27.000Z,27.1
2018-12-21T14:24:11.000Z,27.2
2018-12-21T14:25:27.000Z,27.2
2018-12-21T14:27:27.000Z,27.1
2018-12-21T14:29:11.000Z,27.1
2018-12-21T14:30:27.000Z,27.1
2018-12-21T14:31:27.000Z,27.1
2018-12-21T14:33:27.000Z,27.2
2018-12-21T14:35:27.000Z,27.3
2018-12-21T14:37:27.000Z,27.4
2018-12-21T14:39:27.000Z,27.3
2018-12-21T14:41:27.000Z,27.3
2018-12-21T14:42:27.000Z,27.3
2018-12-21T14:43:27.000Z,27.4
2018-12-21T14:45:27.000Z,27.5
2018-12-21T14:46:27.000Z,27.5
2018-12-21T14:48:11.000Z,27.6
2018-12-21T14:49:27.000Z,27.6
2018-12-21T14:50:27.000Z,27.7
2018-12-21T14:52:27.000Z,27.7
2018-12-21T14:54:27.000Z,27.7
2018-12-21T14:55:27.000Z,27.7
2018-12-21T14:57:27.000Z,27.8
2018-12-21T14:59:11.000Z,27.7
2018-12-21T15:00:27.000Z,27.7
2018-12-21T15:01:27.000Z,27.7
2018-12-21T15:03:26.000Z,27.8
2018-12-21T15:05:26.000Z,27.7
2018-12-21T15:06:26.000Z,27.7
2018-12-21T15:08:26.000Z,27.7
2018-12-21T15:10:26.000Z,27.7
2018-12-21T15:12:26.000Z,27.7
2018-12-21T15:14:11.000Z,27.7
2018-12-21T15:15:26.000Z,27.6
2018-12-21T15:17:26.000Z,27.7
2018-12-21T15:18:26.000Z,27.7
2018-12-21T15:20:26.000Z,27.8
2018-12-21T15:22:26.000Z,27.8
2018-12-21T15:24:26.000Z,27.7
2018-12-21T15:25:26.000Z,27.7
2018-12-21T15:27:26.000Z,27.7
2018-12-21T15:29:26.000Z,27.6
2018-12-21T15:30:26.000Z,27.6
2018-12-21T15:31:26.000Z,27.7
2018-12-21T15:33:26.000Z,27.8
2018-12-21T15:35:26.000Z,27.8
2018-12-21T15:37:26.000Z,27.7
2018-12-21T15:38:26.000Z,27.7
2018-12-21T15:40:26.000Z,27.7
2018-12-21T15:41:26.000Z,27.8
2018-12-21T15:43:26.000Z,27.8
2018-12-21T15:44:26.000Z,27.9
2018-12-21T15:46:26.000Z,27.9
2018-12-21T15:48:26.000Z,27.8
2018-12-21T15:49:26.000Z,27.8
2018-12-21T15:51:26.000Z,27.9
2018-12-21T15:53:26.000Z,27.9
2018-12-21T15:54:26.000Z,27.9
2018-12-21T15:56:26.000Z,27.9
2018-12-21T15:57:26.000Z,27.9
2018-12-21T15:59:26.000Z,28
2018-12-21T16:00:26.000Z,28
2018-12-21T16:02:11.000Z,28
2018-12-21T16:03:26.000Z,27.9
2018-12-21T16:05:26.000Z,27.9
2018-12-21T16:07:26.000Z,27.9
2018-12-21T16:08:26.000Z,27.9
2018-12-21T16:10:26.000Z,27.9
2018-12-21T16:12:26.000Z,27.9
2018-12-21T16:14:26.000Z,27.8
2018-12-21T16:16:26.000Z,27.7
2018-12-21T16:18:26.000Z,27.7
2018-12-21T16:19:26.000Z,27.7
2018-12-21T16:20:26.000Z,27.8
2018-12-21T16:22:26.000Z,27.9
2018-12-21T16:23:26.000Z,27.9
2018-12-21T16:24:26.000Z,27.9
2018-12-21T16:26:26.000Z,28
2018-12-21T16:28:11.000Z,28
2018-12-21T16:29:26.000Z,28
2018-12-21T16:31:26.000Z,28
2018-12-21T16:32:26.000Z,28
2018-12-21T16:34:26.000Z,28
2018-12-21T16:36:26.000Z,27.9
2018-12-21T16:38:26.000Z,27.9
2018-12-21T16:40:11.000Z,27.9
2018-12-21T16:41:26.000Z,27.9
2018-12-21T16:43:26.000Z,27.9
2018-12-21T16:44:26.000Z,27.9
2018-12-21T16:45:26.000Z,27.9
2018-12-21T16:47:26.000Z,28
2018-12-21T16:48:26.000Z,28
2018-12-21T16:50:26.000Z,28
2018-12-21T16:52:26.000Z,27.9
2018-12-21T16:53:26.000Z,27.9
2018-12-21T16:55:26.000Z,28
2018-12-21T16:57:26.000Z,27.9
2018-12-21T16:58:26.000Z,27.9
2018-12-21T16:59:26.000Z,27.9
2018-12-21T17:00:26.000Z,28
2018-12-21T17:02:26.000Z,28
2018-12-21T17:04:11.000Z,27.9
2018-12-21T17:05:26.000Z,27.9
2018-12-21T17:06:26.000Z,27.9
2018-12-21T17:08:26.000Z,27.9
2018-12-21T17:10:26.000Z,27.9
2018-12-21T17:12:26.000Z,27.9
2018-12-21T17:13:26.000Z,27.9
2018-12-21T17:14:26.000Z,28
2018-12-21T17:16:26.000Z,28
2018-12-21T17:17:26.000Z,28
2018-12-21T17:19:26.000Z,28
2018-12-21T17:21:26.000Z,28
2018-12-21T17:23:11.000Z,27.9
2018-12-21T17:24:26.000Z,27.9
2018-12-21T17:26:11.000Z,27.8
2018-12-21T17:27:26.000Z,27.7
2018-12-21T17:28:26.000Z,27.7
2018-12-21T17:29:26.000Z,27.7
2018-12-21T17:31:11.000Z,27.8
2018-12-21T17:32:26.000Z,27.8
2018-12-21T17:33:26.000Z,27.8
2018-12-21T17:34:26.000Z,27.9
2018-12-21T17:36:26.000Z,28
2018-12-21T17:38:26.000Z,28
2018-12-21T17:39:26.000Z,28
2018-12-21T17:41:26.000Z,28
2018-12-21T17:42:26.000Z,28
2018-12-21T17:44:11.000Z,28
2018-12-21T17:45:26.000Z,28
2018-12-21T17:46:26.000Z,28
2018-12-21T17:47:26.000Z,28
2018-12-21T17:49:26.000Z,28.1
2018-12-21T17:50:26.000Z,28.1
2018-12-21T17:52:26.000Z,28.1
2018-12-21T17:53:26.000Z,28.2
2018-12-21T17:55:26.000Z,28.2
2018-12-21T17:57:26.000Z,28.1
2018-12-21T17:59:11.000Z,28
2018-12-21T18:00:26.000Z,27.9
2018-12-21T18:01:26.000Z,27.9
2018-12-21T18:02:26.000Z,27.9
2018-12-21T18:04:26.000Z,28
2018-12-21T18:05:26.000Z,28
2018-12-21T18:07:26.000Z,28
2018-12-21T18:08:26.000Z,28.1
2018-12-21T18:10:26.000Z,28.1
2018-12-21T18:11:26.000Z,28.1
2018-12-21T18:13:26.000Z,28.1
2018-12-21T18:14:26.000Z,28.1
2018-12-21T18:16:26.000Z,28.1
2018-12-21T18:18:26.000Z,28.2
2018-12-21T18:20:26.000Z,28.1
2018-12-21T18:22:26.000Z,28.1
2018-12-21T18:23:26.000Z,28.1
2018-12-21T18:25:26.000Z,28.1
2018-12-21T18:27:26.000Z,28.1
2018-12-21T18:29:26.000Z,28.1
2018-12-21T18:30:26.000Z,28.1
2018-12-21T18:32:26.000Z,28.1
2018-12-21T18:33:26.000Z,28.1
2018-12-21T18:35:26.000Z,28.1
2018-12-21T18:36:26.000Z,28.1
2018-12-21T18:38:26.000Z,28.2
2018-12-21T18:39:26.000Z,28.2
2018-12-21T18:40:26.000Z,28.3
2018-12-21T18:42:26.000Z,28.3
2018-12-21T18:43:26.000Z,28.3
2018-12-21T18:44:26.000Z,28.3
2018-12-21T18:45:26.000Z,28.3
2018-12-21T18:46:26.000Z,28.3
2018-12-21T18:48:26.000Z,28.3
2018-12-21T18:50:26.000Z,28.2
2018-12-21T18:51:26.000Z,28.2
2018-12-21T18:53:26.000Z,28.2
2018-12-21T18:55:26.000Z,28.2
2018-12-21T18:56:26.000Z,28.2
2018-12-21T18:58:26.000Z,28.1
2018-12-21T19:00:26.000Z,28.1
2018-12-21T19:02:11.000Z,28.1
2018-12-21T19:04:26.000Z,28
2018-12-21T19:06:26.000Z,27.8
2018-12-21T19:08:26.000Z,27.7
2018-12-21T19:09:26.000Z,27.7
2018-12-21T19:11:26.000Z,27.8
2018-12-21T19:13:26.000Z,27.8
2018-12-21T19:14:26.000Z,27.9
2018-12-21T19:15:26.000Z,27.9
2018-12-21T19:17:26.000Z,28.1
2018-12-21T19:19:12.000Z,28.1
2018-12-21T19:20:27.000Z,28.1
2018-12-21T19:21:27.000Z,28.1
2018-12-21T19:22:27.000Z,28.2
2018-12-21T19:24:27.000Z,28.2
2018-12-21T19:26:27.000Z,28.1
2018-12-21T19:27:27.000Z,28
2018-12-21T19:29:27.000Z,28
2018-12-21T19:31:27.000Z,28
2018-12-21T19:32:27.000Z,28
2018-12-21T19:34:27.000Z,28.1
2018-12-21T19:36:27.000Z,28
2018-12-21T19:38:27.000Z,28
2018-12-21T19:40:27.000Z,28
2018-12-21T19:41:27.000Z,28
2018-12-21T19:42:27.000Z,28.1
2018-12-21T19:43:27.000Z,28.1
2018-12-21T19:45:12.000Z,28
2018-12-21T19:46:27.000Z,28
2018-12-21T19:48:27.000Z,28
2018-12-21T19:49:27.000Z,28
2018-12-21T19:51:27.000Z,28.1
2018-12-21T19:53:12.000Z,28.1
2018-12-21T19:54:27.000Z,28
2018-12-21T19:56:27.000Z,28.1
2018-12-21T19:58:27.000Z,28
2018-12-21T20:00:27.000Z,28
2018-12-21T20:02:27.000Z,28
2018-12-21T20:03:27.000Z,28
2018-12-21T20:05:27.000Z,28.1
2018-12-21T20:07:27.000Z,28
2018-12-21T20:08:27.000Z,28
2018-12-21T20:09:27.000Z,28
2018-12-21T20:11:27.000Z,28
2018-12-21T20:12:27.000Z,28
2018-12-21T20:14:27.000Z,28.1
2018-12-21T20:16:27.000Z,28.1
2018-12-21T20:18:27.000Z,28
2018-12-21T20:20:12.000Z,28
2018-12-21T20:21:27.000Z,27.9
2018-12-21T20:23:27.000Z,27.9
2018-12-21T20:25:27.000Z,27.9
2018-12-21T20:26:27.000Z,27.9
2018-12-21T20:28:27.000Z,27.9
2018-12-21T20:30:27.000Z,27.9
2018-12-21T20:32:27.000Z,27.8
2018-12-21T20:34:27.000Z,27.8
2018-12-21T20:35:27.000Z,27.9
2018-12-21T20:37:12.000Z,28
2018-12-21T20:38:12.000Z,27.9
2018-12-21T20:40:27.000Z,27.7
2018-12-21T20:42:27.000Z,27.7
2018-12-21T20:44:27.000Z,27.7
2018-12-21T20:45:27.000Z,27.7
2018-12-21T20:47:27.000Z,27.7
2018-12-21T20:49:27.000Z,27.6
2018-12-21T20:51:12.000Z,27.6
2018-12-21T20:52:12.000Z,27.6
2018-12-21T20:53:27.000Z,27.7
2018-12-21T20:54:27.000Z,27.7
2018-12-21T20:56:12.000Z,27.8